sensor_id;sensor_type;location;lat;lon;timestamp;P1;durP1;ratioP1;P2;durP2;ratioP2
75548;SDS011;64133;56.002;37.208;2023-04-01T00:01:28;12.18;;;6.37;;
75548;SDS011;64133;56.002;37.208;2023-04-01T00:06:33;10.38;;;5.47;;
75548;SDS011;64133;56.002;37.208;2023-04-01T00:11:37;10.40;;;6.30;;
75548;SDS011;64133;56.002;37.208;2023-04-01T00:16:42;11.45;;;5.58;;
75548;SDS011;64133;56.002;37.208;2023-04-01T00:21:47;10.48;;;6.15;;
75548;SDS011;64133;56.002;37.208;2023-04-01T00:32:07;11.45;;;5.50;;
75548;SDS011;64133;56.002;37.208;2023-04-01T00:37:12;12.43;;;6.30;;
75548;SDS011;64133;56.002;37.208;2023-04-01T00:42:17;11.88;;;6.25;;
75548;SDS011;64133;56.002;37.208;2023-04-01T00:47:21;11.38;;;6.50;;
75548;SDS011;64133;56.002;37.208;2023-04-01T00:52:28;12.73;;;6.58;;
75548;SDS011;64133;56.002;37.208;2023-04-01T00:57:36;12.13;;;5.92;;
75548;SDS011;64133;56.002;37.208;2023-04-01T01:02:41;14.10;;;6.22;;
75548;SDS011;64133;56.002;37.208;2023-04-01T01:07:50;12.53;;;6.62;;
75548;SDS011;64133;56.002;37.208;2023-04-01T01:12:54;10.75;;;5.78;;
75548;SDS011;64133;56.002;37.208;2023-04-01T01:17:58;10.28;;;4.85;;
75548;SDS011;64133;56.002;37.208;2023-04-01T01:23:10;12.10;;;5.35;;
75548;SDS011;64133;56.002;37.208;2023-04-01T01:33:49;10.40;;;5.55;;
75548;SDS011;64133;56.002;37.208;2023-04-01T01:38:58;12.03;;;6.92;;
75548;SDS011;64133;56.002;37.208;2023-04-01T01:44:00;10.78;;;6.15;;
75548;SDS011;64133;56.002;37.208;2023-04-01T01:49:04;10.80;;;5.70;;
75548;SDS011;64133;56.002;37.208;2023-04-01T01:54:12;13.13;;;5.92;;
75548;SDS011;64133;56.002;37.208;2023-04-01T01:59:20;14.98;;;6.55;;
75548;SDS011;64133;56.002;37.208;2023-04-01T02:04:24;14.45;;;6.83;;
75548;SDS011;64133;56.002;37.208;2023-04-01T02:14:45;12.98;;;6.40;;
75548;SDS011;64133;56.002;37.208;2023-04-01T02:19:49;15.85;;;7.85;;
75548;SDS011;64133;56.002;37.208;2023-04-01T02:24:53;15.78;;;7.80;;
75548;SDS011;64133;56.002;37.208;2023-04-01T02:29:58;14.85;;;7.15;;
75548;SDS011;64133;56.002;37.208;2023-04-01T02:35:03;14.95;;;7.60;;
75548;SDS011;64133;56.002;37.208;2023-04-01T02:40:12;10.00;;;6.28;;
75548;SDS011;64133;56.002;37.208;2023-04-01T02:45:18;12.20;;;5.33;;
75548;SDS011;64133;56.002;37.208;2023-04-01T02:50:23;12.73;;;6.40;;
75548;SDS011;64133;56.002;37.208;2023-04-01T02:55:33;9.70;;;6.00;;
75548;SDS011;64133;56.002;37.208;2023-04-01T03:00:41;13.50;;;6.35;;
75548;SDS011;64133;56.002;37.208;2023-04-01T03:05:42;11.38;;;5.80;;
75548;SDS011;64133;56.002;37.208;2023-04-01T03:10:51;11.38;;;5.67;;
75548;SDS011;64133;56.002;37.208;2023-04-01T03:16:07;10.30;;;5.25;;
75548;SDS011;64133;56.002;37.208;2023-04-01T03:21:15;11.30;;;6.37;;
75548;SDS011;64133;56.002;37.208;2023-04-01T03:26:20;12.93;;;5.67;;
75548;SDS011;64133;56.002;37.208;2023-04-01T03:31:27;11.90;;;5.75;;
75548;SDS011;64133;56.002;37.208;2023-04-01T03:36:33;13.45;;;5.90;;
75548;SDS011;64133;56.002;37.208;2023-04-01T03:41:40;13.15;;;7.95;;
75548;SDS011;64133;56.002;37.208;2023-04-01T03:46:49;9.68;;;5.55;;
75548;SDS011;64133;56.002;37.208;2023-04-01T03:51:52;10.20;;;5.37;;
75548;SDS011;64133;56.002;37.208;2023-04-01T04:02:16;10.72;;;5.42;;
75548;SDS011;64133;56.002;37.208;2023-04-01T04:07:21;14.23;;;6.05;;
75548;SDS011;64133;56.002;37.208;2023-04-01T04:12:28;12.95;;;6.00;;
75548;SDS011;64133;56.002;37.208;2023-04-01T04:22:47;11.90;;;6.08;;
75548;SDS011;64133;56.002;37.208;2023-04-01T04:27:54;12.53;;;6.17;;
75548;SDS011;64133;56.002;37.208;2023-04-01T04:32:59;11.93;;;6.42;;
75548;SDS011;64133;56.002;37.208;2023-04-01T04:38:09;13.72;;;6.97;;
75548;SDS011;64133;56.002;37.208;2023-04-01T04:43:15;14.23;;;6.83;;
75548;SDS011;64133;56.002;37.208;2023-04-01T04:48:37;15.98;;;7.65;;
75548;SDS011;64133;56.002;37.208;2023-04-01T04:53:41;14.70;;;7.03;;
75548;SDS011;64133;56.002;37.208;2023-04-01T04:58:46;14.60;;;6.92;;
75548;SDS011;64133;56.002;37.208;2023-04-01T05:03:53;16.60;;;7.05;;
75548;SDS011;64133;56.002;37.208;2023-04-01T05:14:30;17.50;;;7.62;;
75548;SDS011;64133;56.002;37.208;2023-04-01T05:24:49;15.05;;;6.87;;
75548;SDS011;64133;56.002;37.208;2023-04-01T05:29:54;11.93;;;6.37;;
75548;SDS011;64133;56.002;37.208;2023-04-01T05:34:58;11.97;;;7.00;;
75548;SDS011;64133;56.002;37.208;2023-04-01T05:40:07;12.30;;;6.95;;
75548;SDS011;64133;56.002;37.208;2023-04-01T05:45:12;11.50;;;6.70;;
75548;SDS011;64133;56.002;37.208;2023-04-01T05:50:17;13.18;;;6.90;;
75548;SDS011;64133;56.002;37.208;2023-04-01T05:55:32;12.50;;;6.95;;
75548;SDS011;64133;56.002;37.208;2023-04-01T06:00:37;17.15;;;8.53;;
75548;SDS011;64133;56.002;37.208;2023-04-01T06:05:41;17.57;;;8.10;;
75548;SDS011;64133;56.002;37.208;2023-04-01T06:16:18;12.03;;;7.50;;
75548;SDS011;64133;56.002;37.208;2023-04-01T06:21:32;12.58;;;6.90;;
75548;SDS011;64133;56.002;37.208;2023-04-01T06:32:15;13.18;;;6.70;;
75548;SDS011;64133;56.002;37.208;2023-04-01T06:43:42;12.00;;;6.45;;
75548;SDS011;64133;56.002;37.208;2023-04-01T06:48:58;12.60;;;6.00;;
75548;SDS011;64133;56.002;37.208;2023-04-01T06:54:07;13.55;;;6.37;;
75548;SDS011;64133;56.002;37.208;2023-04-01T06:59:12;13.35;;;6.30;;
75548;SDS011;64133;56.002;37.208;2023-04-01T07:04:16;15.00;;;7.33;;
75548;SDS011;64133;56.002;37.208;2023-04-01T07:09:21;11.03;;;5.53;;
75548;SDS011;64133;56.002;37.208;2023-04-01T07:14:25;15.28;;;6.90;;
75548;SDS011;64133;56.002;37.208;2023-04-01T07:19:31;11.83;;;5.97;;
75548;SDS011;64133;56.002;37.208;2023-04-01T07:24:39;12.73;;;6.22;;
75548;SDS011;64133;56.002;37.208;2023-04-01T07:29:43;12.20;;;6.03;;
75548;SDS011;64133;56.002;37.208;2023-04-01T07:35:01;13.22;;;6.28;;
75548;SDS011;64133;56.002;37.208;2023-04-01T07:40:11;15.03;;;6.20;;
75548;SDS011;64133;56.002;37.208;2023-04-01T07:45:18;9.90;;;4.95;;
75548;SDS011;64133;56.002;37.208;2023-04-01T07:50:25;11.05;;;6.03;;
75548;SDS011;64133;56.002;37.208;2023-04-01T08:00:44;15.78;;;7.65;;
75548;SDS011;64133;56.002;37.208;2023-04-01T08:05:52;13.95;;;6.85;;
75548;SDS011;64133;56.002;37.208;2023-04-01T08:10:57;11.68;;;6.70;;
75548;SDS011;64133;56.002;37.208;2023-04-01T08:16:03;14.40;;;7.37;;
75548;SDS011;64133;56.002;37.208;2023-04-01T08:21:10;15.55;;;6.92;;
75548;SDS011;64133;56.002;37.208;2023-04-01T08:26:16;16.85;;;7.67;;
75548;SDS011;64133;56.002;37.208;2023-04-01T08:31:23;15.98;;;8.60;;
75548;SDS011;64133;56.002;37.208;2023-04-01T08:36:28;13.45;;;8.60;;
75548;SDS011;64133;56.002;37.208;2023-04-01T08:41:39;18.65;;;11.35;;
75548;SDS011;64133;56.002;37.208;2023-04-01T08:47:05;16.55;;;8.70;;
75548;SDS011;64133;56.002;37.208;2023-04-01T08:52:23;13.13;;;7.50;;
75548;SDS011;64133;56.002;37.208;2023-04-01T08:57:37;12.98;;;7.85;;
75548;SDS011;64133;56.002;37.208;2023-04-01T09:02:54;13.13;;;6.80;;
75548;SDS011;64133;56.002;37.208;2023-04-01T09:08:03;11.48;;;6.83;;
75548;SDS011;64133;56.002;37.208;2023-04-01T09:13:16;11.05;;;6.72;;
75548;SDS011;64133;56.002;37.208;2023-04-01T09:24:28;8.68;;;5.55;;
75548;SDS011;64133;56.002;37.208;2023-04-01T09:29:48;12.15;;;6.12;;
75548;SDS011;64133;56.002;37.208;2023-04-01T09:35:06;9.80;;;5.58;;
75548;SDS011;64133;56.002;37.208;2023-04-01T09:40:43;8.13;;;4.15;;
75548;SDS011;64133;56.002;37.208;2023-04-01T09:51:20;11.33;;;5.70;;
75548;SDS011;64133;56.002;37.208;2023-04-01T10:02:23;7.35;;;4.40;;
75548;SDS011;64133;56.002;37.208;2023-04-01T10:07:57;10.50;;;4.17;;
75548;SDS011;64133;56.002;37.208;2023-04-01T10:19:39;8.68;;;4.15;;
75548;SDS011;64133;56.002;37.208;2023-04-01T10:24:54;6.42;;;3.87;;
75548;SDS011;64133;56.002;37.208;2023-04-01T10:36:18;8.78;;;4.30;;
75548;SDS011;64133;56.002;37.208;2023-04-01T10:42:04;7.40;;;4.17;;
75548;SDS011;64133;56.002;37.208;2023-04-01T10:47:39;20.57;;;5.03;;
75548;SDS011;64133;56.002;37.208;2023-04-01T10:52:54;5.25;;;2.90;;
75548;SDS011;64133;56.002;37.208;2023-04-01T10:58:18;6.20;;;2.75;;
75548;SDS011;64133;56.002;37.208;2023-04-01T11:03:42;4.58;;;1.95;;
75548;SDS011;64133;56.002;37.208;2023-04-01T11:21:02;5.15;;;3.62;;
75548;SDS011;64133;56.002;37.208;2023-04-01T11:26:16;10.15;;;3.70;;
75548;SDS011;64133;56.002;37.208;2023-04-01T11:31:31;7.95;;;4.00;;
75548;SDS011;64133;56.002;37.208;2023-04-01T11:36:43;4.65;;;2.77;;
75548;SDS011;64133;56.002;37.208;2023-04-01T11:41:51;4.60;;;2.58;;
75548;SDS011;64133;56.002;37.208;2023-04-01T11:47:16;5.17;;;2.52;;
75548;SDS011;64133;56.002;37.208;2023-04-01T11:52:51;3.90;;;2.60;;
75548;SDS011;64133;56.002;37.208;2023-04-01T11:58:23;4.90;;;2.55;;
75548;SDS011;64133;56.002;37.208;2023-04-01T12:04:04;4.12;;;2.30;;
75548;SDS011;64133;56.002;37.208;2023-04-01T12:09:18;4.80;;;2.00;;
75548;SDS011;64133;56.002;37.208;2023-04-01T12:14:27;5.30;;;2.15;;
75548;SDS011;64133;56.002;37.208;2023-04-01T12:19:35;9.83;;;2.95;;
75548;SDS011;64133;56.002;37.208;2023-04-01T12:29:52;3.42;;;2.00;;
75548;SDS011;64133;56.002;37.208;2023-04-01T12:35:14;5.58;;;3.35;;
75548;SDS011;64133;56.002;37.208;2023-04-01T12:46:12;5.03;;;2.70;;
75548;SDS011;64133;56.002;37.208;2023-04-01T13:02:01;6.75;;;2.62;;
75548;SDS011;64133;56.002;37.208;2023-04-01T13:07:29;3.70;;;1.52;;
75548;SDS011;64133;56.002;37.208;2023-04-01T13:12:50;6.30;;;2.80;;
75548;SDS011;64133;56.002;37.208;2023-04-01T13:18:04;4.72;;;2.12;;
75548;SDS011;64133;56.002;37.208;2023-04-01T13:23:13;8.48;;;2.72;;
75548;SDS011;64133;56.002;37.208;2023-04-01T13:28:23;5.22;;;2.12;;
75548;SDS011;64133;56.002;37.208;2023-04-01T13:33:30;5.22;;;2.08;;
75548;SDS011;64133;56.002;37.208;2023-04-01T13:38:47;7.33;;;3.02;;
75548;SDS011;64133;56.002;37.208;2023-04-01T13:43:54;3.70;;;1.95;;
75548;SDS011;64133;56.002;37.208;2023-04-01T13:49:04;5.83;;;2.42;;
75548;SDS011;64133;56.002;37.208;2023-04-01T13:54:18;1.40;;;0.62;;
75548;SDS011;64133;56.002;37.208;2023-04-01T13:59:52;6.03;;;2.02;;
75548;SDS011;64133;56.002;37.208;2023-04-01T14:05:07;5.78;;;2.52;;
75548;SDS011;64133;56.002;37.208;2023-04-01T14:15:28;4.10;;;1.98;;
75548;SDS011;64133;56.002;37.208;2023-04-01T14:20:39;4.12;;;1.50;;
75548;SDS011;64133;56.002;37.208;2023-04-01T14:37:07;6.45;;;2.70;;
75548;SDS011;64133;56.002;37.208;2023-04-01T14:42:37;6.20;;;2.55;;
75548;SDS011;64133;56.002;37.208;2023-04-01T14:47:47;6.45;;;2.62;;
75548;SDS011;64133;56.002;37.208;2023-04-01T14:52:57;6.30;;;3.10;;
75548;SDS011;64133;56.002;37.208;2023-04-01T14:58:14;7.53;;;3.12;;
75548;SDS011;64133;56.002;37.208;2023-04-01T15:03:20;9.63;;;3.75;;
75548;SDS011;64133;56.002;37.208;2023-04-01T15:08:26;8.43;;;3.27;;
75548;SDS011;64133;56.002;37.208;2023-04-01T15:13:45;7.90;;;3.30;;
75548;SDS011;64133;56.002;37.208;2023-04-01T15:19:03;8.53;;;3.58;;
75548;SDS011;64133;56.002;37.208;2023-04-01T15:29:23;7.03;;;3.42;;
75548;SDS011;64133;56.002;37.208;2023-04-01T15:34:41;7.83;;;4.37;;
75548;SDS011;64133;56.002;37.208;2023-04-01T15:39:48;9.58;;;3.90;;
75548;SDS011;64133;56.002;37.208;2023-04-01T15:45:00;5.53;;;2.80;;
75548;SDS011;64133;56.002;37.208;2023-04-01T15:50:21;12.90;;;4.30;;
75548;SDS011;64133;56.002;37.208;2023-04-01T15:55:27;9.23;;;4.53;;
75548;SDS011;64133;56.002;37.208;2023-04-01T16:00:33;9.90;;;5.12;;
75548;SDS011;64133;56.002;37.208;2023-04-01T16:05:40;10.60;;;5.10;;
75548;SDS011;64133;56.002;37.208;2023-04-01T16:10:49;10.30;;;5.75;;
75548;SDS011;64133;56.002;37.208;2023-04-01T16:16:17;11.95;;;5.28;;
75548;SDS011;64133;56.002;37.208;2023-04-01T16:21:27;10.35;;;5.87;;
75548;SDS011;64133;56.002;37.208;2023-04-01T16:26:34;9.18;;;4.58;;
75548;SDS011;64133;56.002;37.208;2023-04-01T16:31:42;15.53;;;5.95;;
75548;SDS011;64133;56.002;37.208;2023-04-01T16:36:47;12.73;;;6.97;;
75548;SDS011;64133;56.002;37.208;2023-04-01T16:41:56;10.60;;;4.80;;
75548;SDS011;64133;56.002;37.208;2023-04-01T16:46:58;9.98;;;5.10;;
75548;SDS011;64133;56.002;37.208;2023-04-01T16:52:16;10.63;;;5.45;;
75548;SDS011;64133;56.002;37.208;2023-04-01T16:57:21;16.85;;;7.30;;
75548;SDS011;64133;56.002;37.208;2023-04-01T17:02:27;17.40;;;7.25;;
75548;SDS011;64133;56.002;37.208;2023-04-01T17:07:40;7.40;;;3.17;;
75548;SDS011;64133;56.002;37.208;2023-04-01T17:12:47;16.27;;;7.12;;
75548;SDS011;64133;56.002;37.208;2023-04-01T17:17:51;11.30;;;6.03;;
75548;SDS011;64133;56.002;37.208;2023-04-01T17:22:57;12.90;;;5.65;;
75548;SDS011;64133;56.002;37.208;2023-04-01T17:28:03;14.55;;;7.35;;
75548;SDS011;64133;56.002;37.208;2023-04-01T17:33:12;13.68;;;6.75;;
75548;SDS011;64133;56.002;37.208;2023-04-01T17:38:20;9.88;;;5.25;;
75548;SDS011;64133;56.002;37.208;2023-04-01T17:43:25;8.28;;;4.20;;
75548;SDS011;64133;56.002;37.208;2023-04-01T17:48:35;12.18;;;6.40;;
75548;SDS011;64133;56.002;37.208;2023-04-01T17:53:43;12.53;;;5.50;;
75548;SDS011;64133;56.002;37.208;2023-04-01T17:58:49;11.18;;;6.00;;
75548;SDS011;64133;56.002;37.208;2023-04-01T18:09:44;13.25;;;6.00;;
75548;SDS011;64133;56.002;37.208;2023-04-01T18:15:01;10.08;;;5.80;;
75548;SDS011;64133;56.002;37.208;2023-04-01T18:20:36;13.18;;;7.00;;
75548;SDS011;64133;56.002;37.208;2023-04-01T18:25:42;11.65;;;6.10;;
75548;SDS011;64133;56.002;37.208;2023-04-01T18:30:50;9.80;;;4.28;;
75548;SDS011;64133;56.002;37.208;2023-04-01T18:35:57;10.90;;;6.40;;
75548;SDS011;64133;56.002;37.208;2023-04-01T18:41:10;11.75;;;6.22;;
75548;SDS011;64133;56.002;37.208;2023-04-01T18:46:19;11.53;;;6.55;;
75548;SDS011;64133;56.002;37.208;2023-04-01T18:51:23;11.28;;;6.47;;
75548;SDS011;64133;56.002;37.208;2023-04-01T18:56:28;10.68;;;5.60;;
75548;SDS011;64133;56.002;37.208;2023-04-01T19:01:35;12.15;;;6.50;;
75548;SDS011;64133;56.002;37.208;2023-04-01T19:06:44;12.78;;;6.47;;
75548;SDS011;64133;56.002;37.208;2023-04-01T19:11:52;14.07;;;7.28;;
75548;SDS011;64133;56.002;37.208;2023-04-01T19:17:08;12.23;;;6.70;;
75548;SDS011;64133;56.002;37.208;2023-04-01T19:22:17;12.23;;;7.05;;
75548;SDS011;64133;56.002;37.208;2023-04-01T19:27:27;15.25;;;7.92;;
75548;SDS011;64133;56.002;37.208;2023-04-01T19:32:35;13.30;;;6.97;;
75548;SDS011;64133;56.002;37.208;2023-04-01T19:37:44;11.75;;;7.00;;
75548;SDS011;64133;56.002;37.208;2023-04-01T19:42:48;10.18;;;5.75;;
75548;SDS011;64133;56.002;37.208;2023-04-01T19:47:58;9.78;;;4.95;;
75548;SDS011;64133;56.002;37.208;2023-04-01T19:53:06;12.23;;;6.72;;
75548;SDS011;64133;56.002;37.208;2023-04-01T19:58:14;7.50;;;3.87;;
75548;SDS011;64133;56.002;37.208;2023-04-01T20:03:23;13.62;;;7.28;;
75548;SDS011;64133;56.002;37.208;2023-04-01T20:08:36;12.47;;;6.72;;
75548;SDS011;64133;56.002;37.208;2023-04-01T20:13:43;14.70;;;7.20;;
75548;SDS011;64133;56.002;37.208;2023-04-01T20:18:50;9.05;;;4.95;;
75548;SDS011;64133;56.002;37.208;2023-04-01T20:23:55;10.30;;;4.25;;
75548;SDS011;64133;56.002;37.208;2023-04-01T20:29:07;18.12;;;9.08;;
75548;SDS011;64133;56.002;37.208;2023-04-01T20:34:25;15.50;;;7.87;;
75548;SDS011;64133;56.002;37.208;2023-04-01T20:39:54;12.40;;;5.97;;
75548;SDS011;64133;56.002;37.208;2023-04-01T20:45:23;15.15;;;7.80;;
75548;SDS011;64133;56.002;37.208;2023-04-01T20:50:34;13.05;;;7.22;;
75548;SDS011;64133;56.002;37.208;2023-04-01T20:55:47;12.03;;;6.95;;
75548;SDS011;64133;56.002;37.208;2023-04-01T21:01:13;14.13;;;7.45;;
75548;SDS011;64133;56.002;37.208;2023-04-01T21:06:20;11.25;;;6.30;;
75548;SDS011;64133;56.002;37.208;2023-04-01T21:11:51;15.63;;;7.28;;
75548;SDS011;64133;56.002;37.208;2023-04-01T21:16:56;20.57;;;7.65;;
75548;SDS011;64133;56.002;37.208;2023-04-01T21:22:11;12.43;;;6.97;;
75548;SDS011;64133;56.002;37.208;2023-04-01T21:27:27;15.05;;;7.25;;
75548;SDS011;64133;56.002;37.208;2023-04-01T21:32:45;8.23;;;4.05;;
75548;SDS011;64133;56.002;37.208;2023-04-01T21:37:55;12.00;;;5.92;;
75548;SDS011;64133;56.002;37.208;2023-04-01T21:43:11;13.62;;;6.65;;
75548;SDS011;64133;56.002;37.208;2023-04-01T21:53:55;15.30;;;7.42;;
75548;SDS011;64133;56.002;37.208;2023-04-01T22:05:02;13.13;;;7.47;;
75548;SDS011;64133;56.002;37.208;2023-04-01T22:10:09;11.40;;;5.50;;
75548;SDS011;64133;56.002;37.208;2023-04-01T22:15:19;5.90;;;2.95;;
75548;SDS011;64133;56.002;37.208;2023-04-01T22:20:25;11.88;;;6.37;;
75548;SDS011;64133;56.002;37.208;2023-04-01T22:25:31;12.95;;;5.90;;
75548;SDS011;64133;56.002;37.208;2023-04-01T22:30:36;11.78;;;5.70;;
75548;SDS011;64133;56.002;37.208;2023-04-01T22:35:42;13.22;;;6.45;;
75548;SDS011;64133;56.002;37.208;2023-04-01T22:40:46;24.90;;;10.70;;
75548;SDS011;64133;56.002;37.208;2023-04-01T22:51:27;14.20;;;5.67;;
75548;SDS011;64133;56.002;37.208;2023-04-01T22:56:32;10.93;;;4.83;;
75548;SDS011;64133;56.002;37.208;2023-04-01T23:01:38;14.28;;;7.28;;
75548;SDS011;64133;56.002;37.208;2023-04-01T23:06:44;14.58;;;7.87;;
75548;SDS011;64133;56.002;37.208;2023-04-01T23:11:49;13.13;;;6.35;;
75548;SDS011;64133;56.002;37.208;2023-04-01T23:16:57;15.90;;;6.35;;
75548;SDS011;64133;56.002;37.208;2023-04-01T23:22:02;18.82;;;8.80;;
75548;SDS011;64133;56.002;37.208;2023-04-01T23:27:08;12.88;;;7.62;;
75548;SDS011;64133;56.002;37.208;2023-04-01T23:32:14;18.55;;;8.23;;
75548;SDS011;64133;56.002;37.208;2023-04-01T23:37:21;12.82;;;6.47;;
75548;SDS011;64133;56.002;37.208;2023-04-01T23:42:26;17.48;;;8.75;;
75548;SDS011;64133;56.002;37.208;2023-04-01T23:47:30;18.17;;;8.10;;
75548;SDS011;64133;56.002;37.208;2023-04-01T23:52:36;11.25;;;6.42;;
75548;SDS011;64133;56.002;37.208;2023-04-01T23:57:40;18.67;;;9.73;;
